Time;durP1;ratioP1;P1;durP2;ratioP2;P2;SDS_P1;SDS_P2;PMS_P1;PMS_P2;Temp;Humidity;BMP_temperature;BMP_pressure;BME280_temperature;BME280_humidity;BME280_pressure;Samples;Min_cycle;Max_cycle;Signal;HPM_P1;HPM_P2
2022/12/24 00:01:57;;;;;;;15.70;9.63;;;16.00;57.50;;;;;;5010268;28;20459;-77
2022/12/24 00:04:25;;;;;;;12.83;8.90;;;16.00;57.90;;;;;;5010197;28;20456;-77
2022/12/24 00:06:53;;;;;;;12.57;8.77;;;16.00;57.30;;;;;;5006221;28;20463;-78
2022/12/24 00:09:21;;;;;;;14.00;8.20;;;16.00;57.60;;;;;;5009963;28;20484;-77
2022/12/24 00:11:49;;;;;;;10.10;8.10;;;16.00;57.40;;;;;;5009061;28;20543;-77
2022/12/24 00:14:17;;;;;;;9.70;7.43;;;15.90;57.80;;;;;;5011175;28;21039;-77
2022/12/24 00:16:46;;;;;;;11.43;8.20;;;15.90;57.90;;;;;;5008696;28;20456;-77
2022/12/24 00:19:15;;;;;;;12.93;8.83;;;15.90;58.00;;;;;;5005298;28;20471;-77
2022/12/24 00:21:43;;;;;;;11.90;8.17;;;15.90;58.00;;;;;;5009799;28;20527;-77
2022/12/24 00:24:11;;;;;;;11.70;7.67;;;15.90;57.60;;;;;;5006395;28;20479;-77
2022/12/24 00:26:39;;;;;;;9.60;7.73;;;15.90;57.80;;;;;;5010435;28;20463;-77
2022/12/24 00:29:06;;;;;;;16.17;7.77;;;15.90;57.90;;;;;;5011898;28;20480;-80
2022/12/24 00:31:35;;;;;;;13.00;6.77;;;15.90;58.40;;;;;;5010164;28;20467;-78
2022/12/24 00:34:04;;;;;;;7.07;6.23;;;16.00;59.50;;;;;;5013754;28;20495;-78
2022/12/24 00:36:31;;;;;;;8.87;6.20;;;16.20;59.70;;;;;;5014550;28;20443;-79
2022/12/24 00:38:59;;;;;;;9.83;6.40;;;16.30;59.50;;;;;;5009771;28;20488;-79
2022/12/24 00:41:28;;;;;;;7.90;5.37;;;16.40;59.40;;;;;;5009735;28;20456;-78
2022/12/24 00:43:56;;;;;;;7.90;5.77;;;16.40;59.40;;;;;;5014671;28;20452;-78
2022/12/24 00:46:25;;;;;;;6.90;5.93;;;16.50;59.30;;;;;;5006205;28;20444;-79
2022/12/24 00:48:52;;;;;;;8.50;5.47;;;16.50;59.00;;;;;;5007287;28;20452;-79
2022/12/24 00:51:22;;;;;;;8.57;5.57;;;16.50;59.00;;;;;;5012845;28;20962;-78
2022/12/24 00:53:50;;;;;;;6.13;5.50;;;16.50;59.00;;;;;;5013965;28;20436;-78
2022/12/24 00:56:18;;;;;;;5.53;4.90;;;16.50;58.80;;;;;;5012735;28;20443;-78
2022/12/24 00:58:46;;;;;;;7.57;5.50;;;16.60;59.00;;;;;;5012244;28;20459;-79
2022/12/24 01:01:13;;;;;;;12.30;4.97;;;16.60;58.90;;;;;;5009447;28;20539;-78
2022/12/24 01:03:42;;;;;;;6.67;4.73;;;16.60;58.90;;;;;;4995384;28;20441;-78
2022/12/24 01:06:10;;;;;;;7.10;4.70;;;16.60;58.90;;;;;;5000486;28;20995;-78
2022/12/24 01:08:39;;;;;;;7.80;4.77;;;16.60;58.70;;;;;;5008381;28;20970;-78
2022/12/24 01:11:09;;;;;;;7.23;5.10;;;16.60;58.90;;;;;;5012687;28;20444;-78
2022/12/24 01:13:37;;;;;;;9.10;4.97;;;16.60;58.90;;;;;;5007565;28;20444;-78
2022/12/24 01:16:11;;;;;;;6.10;4.17;;;16.60;58.80;;;;;;5011693;28;20445;-78
2022/12/24 01:18:39;;;;;;;4.60;4.10;;;16.60;58.70;;;;;;5005236;28;20443;-78
2022/12/24 01:21:07;;;;;;;5.93;5.00;;;16.60;58.80;;;;;;5010056;28;20475;-79
2022/12/24 01:23:34;;;;;;;4.97;4.47;;;16.60;58.80;;;;;;5012486;28;20452;-78
2022/12/24 01:26:07;;;;;;;5.20;4.70;;;16.70;58.90;;;;;;5004848;28;20449;-78
2022/12/24 01:28:35;;;;;;;5.50;4.20;;;16.70;58.90;;;;;;5008655;28;20449;-81
2022/12/24 01:31:02;;;;;;;4.63;3.87;;;16.70;59.00;;;;;;5015112;28;20455;-79
2022/12/24 01:33:30;;;;;;;6.17;4.30;;;16.70;59.00;;;;;;5014532;28;20531;-79
2022/12/24 01:36:02;;;;;;;4.90;4.00;;;16.70;58.90;;;;;;5010993;28;20815;-79
2022/12/24 01:38:30;;;;;;;4.43;4.03;;;16.70;58.80;;;;;;5012617;28;20444;-78
2022/12/24 01:43:45;;;;;;;10.13;4.10;;;16.70;58.80;;;;;;5008815;28;20456;-79
2022/12/24 01:46:14;;;;;;;6.20;4.03;;;16.60;58.90;;;;;;5011794;28;20452;-79
2022/12/24 01:48:43;;;;;;;5.40;4.23;;;16.60;59.60;;;;;;5008948;28;20492;-79
2022/12/24 01:51:17;;;;;;;4.40;4.00;;;16.60;59.00;;;;;;5010142;28;20444;-78
2022/12/24 01:53:47;;;;;;;7.53;3.90;;;16.60;59.00;;;;;;5010350;28;20456;-78
2022/12/24 01:56:15;;;;;;;4.70;4.27;;;16.60;59.00;;;;;;5011441;28;20479;-79
2022/12/24 01:58:46;;;;;;;5.80;4.00;;;16.60;59.10;;;;;;5011349;28;20468;-79
2022/12/24 02:01:13;;;;;;;4.83;3.87;;;16.60;59.10;;;;;;5013341;28;20468;-79
2022/12/24 02:03:41;;;;;;;8.10;3.90;;;16.70;59.20;;;;;;5009057;28;20448;-79
2022/12/24 02:06:11;;;;;;;4.00;3.27;;;16.70;59.10;;;;;;5011786;28;20452;-79
2022/12/24 02:08:42;;;;;;;5.23;3.87;;;16.70;59.00;;;;;;5009924;28;20464;-79
2022/12/24 02:11:11;;;;;;;4.93;4.23;;;16.70;59.00;;;;;;5012357;28;20448;-78
2022/12/24 02:13:39;;;;;;;4.60;4.03;;;16.70;59.00;;;;;;5008873;28;20459;-79
2022/12/24 02:16:12;;;;;;;5.23;4.23;;;16.70;59.20;;;;;;5010751;28;20457;-78
2022/12/24 02:18:43;;;;;;;4.93;3.20;;;16.70;59.20;;;;;;5008927;28;20473;-78
2022/12/24 02:21:48;;;;;;;4.83;3.97;;;16.70;59.20;;;;;;5010860;28;20482;-78
2022/12/24 02:24:30;;;;;;;4.60;4.00;;;16.70;59.10;;;;;;5010343;28;20448;-79
2022/12/24 02:27:09;;;;;;;4.63;4.20;;;16.70;59.20;;;;;;5008691;28;20456;-78
2022/12/24 02:30:13;;;;;;;4.57;3.93;;;16.70;59.30;;;;;;5008271;28;20534;-79
2022/12/24 02:32:53;;;;;;;6.30;4.23;;;16.70;59.20;;;;;;4977672;28;20483;-79
2022/12/24 02:35:23;;;;;;;7.90;5.83;;;16.70;59.40;;;;;;5008596;28;20478;-79
2022/12/24 02:37:54;;;;;;;7.37;5.40;;;16.70;59.30;;;;;;5009181;28;20464;-79
2022/12/24 02:40:23;;;;;;;11.33;5.20;;;16.70;59.40;;;;;;5003161;28;20479;-78
2022/12/24 02:42:53;;;;;;;5.93;5.07;;;16.70;59.40;;;;;;5011476;28;20471;-78
2022/12/24 02:45:22;;;;;;;6.83;5.00;;;16.70;59.40;;;;;;5012273;28;20460;-79
2022/12/24 02:47:51;;;;;;;6.93;4.97;;;16.70;59.60;;;;;;5010148;28;20456;-79
2022/12/24 02:50:19;;;;;;;11.57;5.97;;;16.70;59.50;;;;;;5009103;28;20475;-79
2022/12/24 02:52:47;;;;;;;10.80;5.40;;;16.70;59.50;;;;;;5009882;28;20448;-79
2022/12/24 02:55:17;;;;;;;6.87;4.70;;;16.70;59.50;;;;;;5008142;28;20452;-79
2022/12/24 02:58:00;;;;;;;7.30;4.57;;;16.70;59.50;;;;;;5010074;28;20462;-79
2022/12/24 03:00:28;;;;;;;5.53;4.87;;;16.70;59.50;;;;;;5012920;28;20479;-80
2022/12/24 03:03:10;;;;;;;7.57;4.90;;;16.70;59.50;;;;;;5013101;28;20543;-79
2022/12/24 03:05:42;;;;;;;5.90;4.90;;;16.60;59.40;;;;;;5014725;28;20444;-79
2022/12/24 03:08:14;;;;;;;6.80;4.90;;;16.70;59.60;;;;;;5013036;28;20456;-79
2022/12/24 03:10:47;;;;;;;6.40;5.40;;;16.70;59.60;;;;;;5010372;28;20459;-79
2022/12/24 03:13:16;;;;;;;5.77;4.77;;;16.70;59.60;;;;;;5012668;28;20447;-78
2022/12/24 03:15:44;;;;;;;5.23;4.67;;;16.70;59.60;;;;;;5010481;28;20452;-78
2022/12/24 03:18:15;;;;;;;7.20;5.17;;;16.70;59.50;;;;;;5012276;28;20459;-79
2022/12/24 03:20:45;;;;;;;6.33;4.67;;;16.70;59.50;;;;;;5008674;28;20479;-78
2022/12/24 03:23:12;;;;;;;7.30;4.83;;;16.70;59.70;;;;;;5011060;28;20520;-79
2022/12/24 03:25:42;;;;;;;5.23;4.57;;;16.70;59.60;;;;;;5012049;28;20460;-78
2022/12/24 03:28:10;;;;;;;5.90;4.20;;;16.70;59.60;;;;;;5012075;28;20460;-78
2022/12/24 03:30:39;;;;;;;4.80;4.30;;;16.70;59.70;;;;;;5014299;28;20471;-79
2022/12/24 03:33:07;;;;;;;4.77;4.13;;;16.70;59.50;;;;;;5011456;28;20460;-78
2022/12/24 03:35:37;;;;;;;5.37;4.57;;;16.70;59.60;;;;;;5012157;28;20460;-78
2022/12/24 03:38:05;;;;;;;6.73;5.10;;;16.70;59.60;;;;;;5008624;28;20460;-78
2022/12/24 03:40:34;;;;;;;5.80;4.70;;;16.70;59.60;;;;;;5012226;28;20476;-78
2022/12/24 03:43:02;;;;;;;6.10;4.90;;;16.70;59.60;;;;;;5014436;28;20468;-79
2022/12/24 03:45:30;;;;;;;5.97;5.20;;;16.70;59.60;;;;;;5013940;28;20453;-78
2022/12/24 03:47:58;;;;;;;5.57;4.17;;;16.70;59.70;;;;;;5013803;28;20460;-79
2022/12/24 03:50:26;;;;;;;5.20;4.27;;;16.70;59.60;;;;;;5013840;28;20476;-79
2022/12/24 03:52:56;;;;;;;4.70;4.20;;;16.70;59.70;;;;;;5012500;28;20460;-79
2022/12/24 03:55:24;;;;;;;5.13;4.70;;;16.80;59.90;;;;;;5013910;28;21003;-79
2022/12/24 03:57:52;;;;;;;5.70;4.83;;;16.70;59.60;;;;;;5014399;28;20457;-79
2022/12/24 04:00:20;;;;;;;4.80;4.30;;;16.80;59.80;;;;;;5011712;28;20476;-79
2022/12/24 04:02:48;;;;;;;4.43;4.03;;;16.70;59.70;;;;;;5013638;28;20480;-79
2022/12/24 04:05:18;;;;;;;5.63;4.27;;;16.70;59.80;;;;;;5012242;28;20512;-79
2022/12/24 04:07:46;;;;;;;4.80;4.30;;;16.70;59.60;;;;;;5009712;28;20448;-79
2022/12/24 04:10:15;;;;;;;4.33;3.93;;;16.70;59.80;;;;;;5013331;28;20489;-79
2022/12/24 04:12:43;;;;;;;6.53;3.93;;;16.70;59.80;;;;;;5009016;28;20954;-80
2022/12/24 04:15:11;;;;;;;4.40;4.00;;;16.70;59.80;;;;;;5012966;28;20459;-79
2022/12/24 04:17:39;;;;;;;5.00;4.53;;;16.70;59.80;;;;;;5015919;28;20459;-79
2022/12/24 04:20:08;;;;;;;4.87;4.37;;;16.70;59.90;;;;;;5013196;28;20488;-79
2022/12/24 04:22:36;;;;;;;4.00;3.60;;;16.70;60.00;;;;;;5013157;28;20475;-79
2022/12/24 04:25:04;;;;;;;7.10;3.90;;;16.80;59.90;;;;;;5012450;28;20452;-80
2022/12/24 04:27:34;;;;;;;4.27;3.87;;;16.80;59.80;;;;;;5015282;28;20456;-80
2022/12/24 04:30:02;;;;;;;4.87;3.93;;;16.80;59.80;;;;;;5012694;28;20503;-79
2022/12/24 04:32:30;;;;;;;5.43;3.63;;;16.80;59.90;;;;;;5008460;28;20452;-77
2022/12/24 04:34:58;;;;;;;4.47;4.07;;;16.80;59.90;;;;;;5009063;28;20460;-78
2022/12/24 04:37:25;;;;;;;8.43;4.27;;;16.80;59.80;;;;;;5012887;28;20487;-79
2022/12/24 04:39:53;;;;;;;4.30;3.90;;;16.80;60.50;;;;;;5011676;28;20472;-79
2022/12/24 04:42:21;;;;;;;3.93;3.63;;;16.80;59.90;;;;;;5011028;28;20471;-78
2022/12/24 04:44:50;;;;;;;3.90;3.60;;;16.80;59.90;;;;;;5011041;28;20452;-79
2022/12/24 04:47:18;;;;;;;3.70;3.43;;;16.80;59.80;;;;;;5011604;28;20448;-79
2022/12/24 04:49:46;;;;;;;3.67;3.37;;;16.80;59.90;;;;;;5012797;28;20476;-79
2022/12/24 04:52:16;;;;;;;5.27;3.90;;;16.80;59.90;;;;;;5009812;28;20453;-77
2022/12/24 04:54:44;;;;;;;4.07;3.73;;;16.80;60.70;;;;;;5006325;28;20528;-79
2022/12/24 04:57:12;;;;;;;5.17;3.33;;;16.80;60.00;;;;;;5010767;28;20453;-79
2022/12/24 04:59:40;;;;;;;3.70;3.50;;;16.80;59.80;;;;;;5011070;28;20476;-79
2022/12/24 05:02:09;;;;;;;4.40;3.83;;;16.80;59.80;;;;;;5011622;28;20468;-79
2022/12/24 05:04:38;;;;;;;4.23;3.60;;;16.80;59.80;;;;;;5008622;28;20467;-79
2022/12/24 05:07:06;;;;;;;4.80;4.00;;;16.80;60.00;;;;;;5008395;28;20460;-79
2022/12/24 05:09:34;;;;;;;5.27;3.87;;;16.80;59.80;;;;;;5012505;28;20488;-79
2022/12/24 05:12:02;;;;;;;4.70;4.30;;;16.80;60.00;;;;;;5009636;28;20460;-79
2022/12/24 05:14:30;;;;;;;5.20;4.37;;;16.80;59.80;;;;;;5009546;28;20460;-79
2022/12/24 05:16:58;;;;;;;4.67;4.10;;;16.80;59.80;;;;;;5010581;28;20463;-79
2022/12/24 05:19:27;;;;;;;4.20;3.80;;;16.80;59.90;;;;;;5012490;28;20480;-78
2022/12/24 05:27:23;;;;;;;5.90;4.50;;;16.80;59.70;;;;;;5013283;28;20527;-79
2022/12/24 05:29:51;;;;;;;4.40;4.00;;;16.80;59.80;;;;;;5012357;28;20480;-79
2022/12/24 05:32:19;;;;;;;6.97;4.20;;;16.80;59.90;;;;;;5012782;28;20464;-79
2022/12/24 05:34:48;;;;;;;4.50;4.10;;;16.80;59.80;;;;;;5012423;28;20459;-79
2022/12/24 05:37:16;;;;;;;4.80;4.30;;;16.80;59.90;;;;;;5008954;28;20452;-79
2022/12/24 05:39:44;;;;;;;5.77;4.20;;;16.80;59.90;;;;;;5009451;28;20487;-80
2022/12/24 05:42:12;;;;;;;4.50;4.10;;;16.80;59.90;;;;;;5011463;28;20487;-79
2022/12/24 05:44:39;;;;;;;3.97;3.60;;;16.80;59.90;;;;;;5011906;28;20452;-79
2022/12/24 05:47:08;;;;;;;4.40;3.90;;;16.80;59.70;;;;;;5009167;28;20452;-79
2022/12/24 05:49:35;;;;;;;5.27;4.70;;;16.80;59.80;;;;;;5012628;28;20464;-78
2022/12/24 05:52:05;;;;;;;5.90;4.93;;;16.90;59.80;;;;;;5012353;28;20453;-80
2022/12/24 05:54:33;;;;;;;5.33;4.70;;;16.80;59.80;;;;;;5011941;28;20444;-79
2022/12/24 05:57:01;;;;;;;5.80;4.50;;;16.80;59.80;;;;;;5011533;28;20483;-78
2022/12/24 05:59:29;;;;;;;5.03;4.53;;;16.80;59.70;;;;;;5012221;28;20480;-80
2022/12/24 06:01:56;;;;;;;4.80;4.40;;;16.90;59.80;;;;;;5011288;28;20571;-79
2022/12/24 06:04:25;;;;;;;5.20;4.37;;;16.90;59.80;;;;;;5010245;28;20536;-78
2022/12/24 06:06:56;;;;;;;4.20;3.80;;;16.90;59.80;;;;;;5009540;28;20452;-79
2022/12/24 06:09:25;;;;;;;4.67;4.23;;;16.90;59.80;;;;;;5009895;28;20480;-79
2022/12/24 06:11:53;;;;;;;5.77;4.73;;;16.90;59.70;;;;;;5011078;28;20455;-79
2022/12/24 06:14:21;;;;;;;5.93;4.63;;;16.90;59.70;;;;;;5007720;28;20459;-79
2022/12/24 06:16:49;;;;;;;5.67;4.50;;;16.90;59.70;;;;;;5011452;28;20463;-79
2022/12/24 06:19:17;;;;;;;6.23;4.70;;;16.90;59.80;;;;;;5010644;28;20478;-79
2022/12/24 06:21:45;;;;;;;4.53;4.03;;;16.90;59.90;;;;;;5006242;28;20460;-79
2022/12/24 06:24:14;;;;;;;5.87;4.23;;;16.90;59.80;;;;;;5008985;28;20465;-79
2022/12/24 06:26:43;;;;;;;6.57;4.73;;;16.90;59.70;;;;;;5011275;28;20453;-79
2022/12/24 06:29:11;;;;;;;5.70;4.33;;;16.90;59.60;;;;;;5008468;28;20486;-79
2022/12/24 06:31:39;;;;;;;6.40;4.47;;;16.90;59.70;;;;;;5010480;28;20467;-79
2022/12/24 06:34:07;;;;;;;4.83;3.80;;;16.90;59.60;;;;;;5010707;28;20515;-79
2022/12/24 06:36:35;;;;;;;5.13;3.80;;;16.90;59.60;;;;;;5014268;28;20448;-79
2022/12/24 06:39:03;;;;;;;5.10;4.23;;;16.90;59.60;;;;;;5015902;28;20475;-79
2022/12/24 06:41:31;;;;;;;4.57;3.90;;;16.90;59.70;;;;;;5015920;28;20472;-79
2022/12/24 06:44:00;;;;;;;4.53;3.83;;;16.90;59.60;;;;;;5013418;28;20476;-79
2022/12/24 06:46:28;;;;;;;4.33;3.93;;;16.90;59.70;;;;;;5012764;28;20449;-79
2022/12/24 06:48:56;;;;;;;4.00;3.70;;;16.90;59.70;;;;;;5013087;28;20460;-79
2022/12/24 06:51:24;;;;;;;4.90;3.73;;;16.90;59.80;;;;;;5018019;28;20448;-79
2022/12/24 06:53:52;;;;;;;5.40;4.30;;;16.90;59.70;;;;;;5017326;28;20440;-79
2022/12/24 06:56:20;;;;;;;4.90;4.00;;;16.90;59.80;;;;;;5013345;28;20465;-79
2022/12/24 06:58:49;;;;;;;4.50;3.87;;;17.00;59.70;;;;;;5013771;28;20476;-79
2022/12/24 07:01:19;;;;;;;6.27;3.63;;;17.00;59.70;;;;;;5009346;28;20457;-78
2022/12/24 07:03:48;;;;;;;7.43;3.93;;;16.90;59.50;;;;;;5012897;28;20488;-79
2022/12/24 07:06:18;;;;;;;4.10;3.33;;;17.00;59.70;;;;;;5007682;28;20457;-78
2022/12/24 07:08:46;;;;;;;4.63;3.70;;;17.00;59.60;;;;;;5009334;28;20504;-79
2022/12/24 07:11:14;;;;;;;4.70;3.90;;;17.00;59.50;;;;;;5010130;28;20498;-78
2022/12/24 07:13:42;;;;;;;4.93;4.20;;;17.00;59.60;;;;;;5011080;28;20455;-79
2022/12/24 07:16:10;;;;;;;6.27;4.17;;;17.00;59.60;;;;;;5011091;28;20452;-78
2022/12/24 07:18:39;;;;;;;6.67;3.50;;;17.00;59.60;;;;;;5010769;28;20479;-79
2022/12/24 07:21:07;;;;;;;6.10;4.47;;;16.90;59.60;;;;;;5010343;28;20456;-78
2022/12/24 07:23:35;;;;;;;3.60;3.30;;;16.90;59.60;;;;;;5012459;28;20476;-79
2022/12/24 07:26:04;;;;;;;4.30;3.50;;;17.00;59.70;;;;;;5009658;28;20463;-79
2022/12/24 07:28:34;;;;;;;4.90;3.63;;;17.00;59.50;;;;;;5012212;28;20459;-79
2022/12/24 07:31:02;;;;;;;5.70;3.90;;;16.90;59.60;;;;;;5010610;28;20456;-79
2022/12/24 07:33:30;;;;;;;5.20;3.90;;;17.00;59.60;;;;;;5011344;28;20449;-79
2022/12/24 07:36:01;;;;;;;4.43;3.83;;;17.00;59.60;;;;;;5014003;28;20463;-79
2022/12/24 07:38:29;;;;;;;5.90;3.87;;;17.00;59.70;;;;;;5013216;28;20483;-78
2022/12/24 07:40:56;;;;;;;5.30;3.80;;;17.00;59.60;;;;;;5014503;28;20452;-79
2022/12/24 07:43:24;;;;;;;4.93;3.67;;;17.00;59.60;;;;;;5014565;28;20484;-79
2022/12/24 07:45:55;;;;;;;5.60;3.80;;;17.00;59.60;;;;;;5013120;28;20531;-79
2022/12/24 07:48:22;;;;;;;5.00;4.00;;;17.00;59.40;;;;;;5014918;28;20532;-79
2022/12/24 07:50:51;;;;;;;6.00;3.90;;;17.00;59.50;;;;;;5014326;28;20453;-79
2022/12/24 07:53:20;;;;;;;3.87;3.47;;;17.00;59.40;;;;;;5012147;28;20445;-79
2022/12/24 07:55:48;;;;;;;6.70;3.70;;;17.00;59.50;;;;;;5009393;28;20827;-79
2022/12/24 07:58:17;;;;;;;6.60;4.10;;;17.00;59.70;;;;;;5009947;28;20453;-79
2022/12/24 08:00:44;;;;;;;5.97;3.80;;;17.00;59.60;;;;;;5012458;28;20452;-79
2022/12/24 08:03:14;;;;;;;4.00;3.20;;;17.00;59.60;;;;;;5010683;28;20480;-79
2022/12/24 08:05:42;;;;;;;5.80;3.90;;;17.00;59.50;;;;;;5012920;28;20448;-78
2022/12/24 08:08:10;;;;;;;5.40;4.13;;;17.00;59.60;;;;;;5009767;28;20468;-77
2022/12/24 08:10:40;;;;;;;6.03;4.07;;;17.00;59.50;;;;;;5010254;28;20480;-77
2022/12/24 08:13:08;;;;;;;4.43;3.53;;;17.10;59.60;;;;;;5008137;28;20457;-78
2022/12/24 08:15:36;;;;;;;6.00;3.80;;;17.00;59.50;;;;;;5010789;28;20465;-77
2022/12/24 08:18:04;;;;;;;8.50;4.00;;;17.10;59.60;;;;;;5010506;28;20543;-78
2022/12/24 08:20:31;;;;;;;6.27;4.10;;;17.10;59.60;;;;;;5008078;28;20556;-78
2022/12/24 08:22:59;;;;;;;6.13;3.97;;;17.10;59.70;;;;;;5010652;28;20467;-78
2022/12/24 08:25:28;;;;;;;8.13;4.13;;;17.10;59.60;;;;;;5011823;28;20448;-78
2022/12/24 08:27:57;;;;;;;7.00;4.47;;;17.10;59.70;;;;;;5012345;28;20462;-78
2022/12/24 08:30:25;;;;;;;5.57;3.63;;;17.10;59.60;;;;;;5008314;28;20475;-78
2022/12/24 08:32:54;;;;;;;9.23;4.20;;;17.10;59.60;;;;;;5011706;28;20461;-79
2022/12/24 08:35:24;;;;;;;4.97;3.90;;;17.10;59.60;;;;;;5012375;28;20466;-79
2022/12/24 08:37:52;;;;;;;6.00;3.87;;;17.10;59.70;;;;;;5013199;28;20462;-78
2022/12/24 08:40:20;;;;;;;6.20;4.03;;;17.10;59.70;;;;;;5010576;28;20492;-79
2022/12/24 08:42:48;;;;;;;5.00;4.13;;;17.20;59.70;;;;;;5006839;28;20455;-79
2022/12/24 08:45:19;;;;;;;4.67;3.90;;;17.20;59.70;;;;;;5008512;28;20476;-79
2022/12/24 08:47:47;;;;;;;6.27;4.07;;;17.20;59.80;;;;;;5012815;28;20456;-79
2022/12/24 08:50:31;;;;;;;6.00;4.07;;;17.20;59.80;;;;;;5010287;28;20476;-79
2022/12/24 08:52:59;;;;;;;7.50;3.57;;;17.20;59.70;;;;;;5008032;28;20544;-77
2022/12/24 08:55:27;;;;;;;4.30;3.63;;;17.20;59.80;;;;;;5008625;28;20449;-77
2022/12/24 08:57:56;;;;;;;4.20;3.70;;;17.20;59.50;;;;;;5011083;28;20484;-78
2022/12/24 09:00:26;;;;;;;5.07;3.57;;;17.20;59.70;;;;;;5007852;28;20475;-78
2022/12/24 09:02:59;;;;;;;4.63;3.93;;;17.20;59.70;;;;;;5011142;28;20456;-78
2022/12/24 09:05:31;;;;;;;7.13;3.57;;;17.20;59.60;;;;;;5007580;28;20472;-78
2022/12/24 09:08:06;;;;;;;6.37;3.60;;;17.20;59.70;;;;;;5010305;28;20460;-78
2022/12/24 09:10:34;;;;;;;6.60;4.20;;;17.20;59.80;;;;;;5009636;28;20570;-78
2022/12/24 09:13:02;;;;;;;5.03;3.33;;;17.30;59.80;;;;;;5011157;28;20462;-77
2022/12/24 09:15:32;;;;;;;5.33;4.10;;;17.30;59.70;;;;;;5010840;28;20941;-78
2022/12/24 09:18:03;;;;;;;5.90;4.17;;;17.30;59.70;;;;;;5011885;28;20531;-78
2022/12/24 09:20:31;;;;;;;9.80;3.60;;;17.30;59.50;;;;;;5013452;28;20511;-79
2022/12/24 09:22:59;;;;;;;4.87;3.80;;;17.30;59.80;;;;;;5032658;28;20487;-80
2022/12/24 09:25:27;;;;;;;6.33;3.83;;;17.30;59.70;;;;;;5030776;28;20492;-79
2022/12/24 09:27:59;;;;;;;5.60;3.77;;;17.30;59.80;;;;;;5033624;28;20461;-78
2022/12/24 09:30:37;;;;;;;5.50;3.77;;;17.30;59.60;;;;;;5033299;28;20547;-78
2022/12/24 09:33:10;;;;;;;6.50;3.90;;;17.30;59.80;;;;;;5030531;28;20456;-79
2022/12/24 09:35:41;;;;;;;6.20;3.90;;;17.40;59.80;;;;;;5028679;28;20437;-78
2022/12/24 09:38:10;;;;;;;5.63;3.47;;;17.40;59.70;;;;;;5032578;28;20432;-78
2022/12/24 09:40:41;;;;;;;6.20;3.90;;;17.40;59.80;;;;;;5030984;28;20539;-78
2022/12/24 09:43:16;;;;;;;5.50;3.30;;;17.50;59.70;;;;;;5032078;28;20492;-79
2022/12/24 09:45:51;;;;;;;6.07;3.70;;;17.70;59.80;;;;;;5021361;28;20475;-79
2022/12/24 09:48:25;;;;;;;5.87;3.50;;;17.70;59.60;;;;;;5013647;28;20460;-79
2022/12/24 09:51:13;;;;;;;8.47;4.40;;;17.90;59.60;;;;;;5008770;28;20560;-79
2022/12/24 09:53:43;;;;;;;5.90;3.63;;;18.00;59.60;;;;;;5016164;28;20522;-79
2022/12/24 09:56:13;;;;;;;7.70;4.57;;;18.10;59.60;;;;;;5014117;28;20460;-79
2022/12/24 09:58:46;;;;;;;5.00;3.27;;;18.30;59.50;;;;;;5015241;28;20486;-79
2022/12/24 10:01:16;;;;;;;5.13;3.40;;;18.40;59.30;;;;;;5012288;28;20460;-79
2022/12/24 10:03:45;;;;;;;4.00;3.60;;;18.40;58.90;;;;;;5015886;28;20426;-79
2022/12/24 10:06:15;;;;;;;5.27;3.47;;;18.40;58.80;;;;;;5013825;28;20434;-78
2022/12/24 10:08:53;;;;;;;8.10;3.73;;;18.50;59.00;;;;;;5013430;28;20545;-79
2022/12/24 10:11:24;;;;;;;5.80;3.77;;;18.60;59.40;;;;;;5016268;28;20451;-79
2022/12/24 10:14:00;;;;;;;7.73;4.00;;;18.70;59.30;;;;;;5019012;28;20452;-80
2022/12/24 10:16:35;;;;;;;7.43;4.00;;;18.90;59.20;;;;;;5016339;28;20459;-79
2022/12/24 10:19:08;;;;;;;3.70;3.40;;;19.00;59.20;;;;;;5017375;28;21014;-79
2022/12/24 10:21:40;;;;;;;4.83;3.43;;;19.10;59.00;;;;;;5019940;28;20456;-80
2022/12/24 10:24:12;;;;;;;5.43;3.60;;;19.20;58.70;;;;;;5018710;28;20491;-79
2022/12/24 10:26:44;;;;;;;4.87;3.60;;;19.30;58.60;;;;;;5019125;28;20457;-79
2022/12/24 10:29:14;;;;;;;7.57;3.70;;;19.20;58.30;;;;;;5016206;28;20472;-79
2022/12/24 10:31:46;;;;;;;6.90;3.63;;;19.20;58.30;;;;;;5014473;28;20441;-78
2022/12/24 10:34:15;;;;;;;5.90;3.43;;;19.10;58.50;;;;;;5014652;28;20461;-79
2022/12/24 10:36:43;;;;;;;7.10;3.73;;;19.00;58.60;;;;;;5017434;28;20447;-78
2022/12/24 10:39:12;;;;;;;8.63;4.00;;;19.10;58.90;;;;;;5017082;28;20456;-79
2022/12/24 10:41:40;;;;;;;4.63;3.50;;;19.10;58.80;;;;;;5018309;28;20467;-79
2022/12/24 10:44:09;;;;;;;8.47;3.87;;;19.20;59.20;;;;;;5017317;28;20435;-79
2022/12/24 10:46:38;;;;;;;5.20;3.90;;;19.20;59.10;;;;;;5017225;28;20456;-79
2022/12/24 10:49:12;;;;;;;6.50;3.60;;;19.30;58.80;;;;;;5008386;28;20503;-79
2022/12/24 10:51:41;;;;;;;6.90;3.30;;;19.30;59.00;;;;;;5008237;28;20466;-79
2022/12/24 10:54:12;;;;;;;5.80;3.53;;;19.50;59.40;;;;;;5024988;28;20551;-78
2022/12/24 10:56:41;;;;;;;3.30;2.90;;;19.70;59.20;;;;;;5021279;28;20452;-79
2022/12/24 10:59:23;;;;;;;3.83;3.33;;;19.90;59.00;;;;;;5007375;28;20475;-79
2022/12/24 11:01:51;;;;;;;3.70;3.27;;;20.00;58.50;;;;;;5011518;28;20444;-80
2022/12/24 11:04:21;;;;;;;7.50;3.67;;;20.10;58.50;;;;;;5015018;28;20437;-79
2022/12/24 11:06:53;;;;;;;6.00;3.47;;;20.00;58.20;;;;;;5013228;28;20441;-78
2022/12/24 11:09:22;;;;;;;5.90;3.83;;;20.00;58.30;;;;;;5006124;28;20478;-77
2022/12/24 11:11:50;;;;;;;5.37;3.60;;;20.00;58.30;;;;;;5013075;28;20514;-78
2022/12/24 11:14:18;;;;;;;6.20;4.00;;;20.10;58.70;;;;;;5016030;28;20444;-79
2022/12/24 11:16:51;;;;;;;11.03;3.53;;;20.20;58.70;;;;;;5010806;28;20448;-79
2022/12/24 11:19:30;;;;;;;7.00;3.50;;;20.30;58.40;;;;;;5010683;28;20476;-79
2022/12/24 11:21:59;;;;;;;6.47;3.40;;;20.30;58.20;;;;;;4999147;28;20452;-79
2022/12/24 11:24:28;;;;;;;9.37;3.90;;;20.30;58.30;;;;;;4998669;28;20445;-79
2022/12/24 11:27:24;;;;;;;6.83;3.83;;;20.30;58.20;;;;;;5011803;28;20433;-79
2022/12/24 11:29:52;;;;;;;8.43;3.87;;;20.30;58.00;;;;;;5014093;28;20468;-78
2022/12/24 11:32:23;;;;;;;6.70;3.87;;;20.10;58.00;;;;;;5007268;28;20487;-79
2022/12/24 11:34:53;;;;;;;6.40;3.50;;;20.00;58.10;;;;;;5007431;28;20457;-79
2022/12/24 11:37:22;;;;;;;6.37;3.60;;;19.90;58.40;;;;;;5015733;28;20485;-79
2022/12/24 11:39:51;;;;;;;8.40;3.90;;;19.80;58.60;;;;;;5002418;28;20484;-78
2022/12/24 11:42:31;;;;;;;5.00;3.30;;;19.80;58.70;;;;;;5020845;28;20444;-80
2022/12/24 11:44:59;;;;;;;6.70;3.73;;;19.80;58.70;;;;;;5007459;28;20480;-79
2022/12/24 11:47:34;;;;;;;8.00;3.70;;;19.80;59.00;;;;;;5014231;28;20472;-80
2022/12/24 11:50:25;;;;;;;8.27;3.60;;;19.70;58.80;;;;;;5017924;28;20476;-79
2022/12/24 11:52:57;;;;;;;6.10;3.43;;;19.70;58.90;;;;;;5020640;28;20490;-79
2022/12/24 11:55:33;;;;;;;5.97;3.30;;;19.60;58.80;;;;;;5018077;28;20441;-79
2022/12/24 11:58:04;;;;;;;6.73;3.73;;;19.50;58.80;;;;;;5019871;28;20448;-79
2022/12/24 12:00:32;;;;;;;8.13;3.60;;;19.50;59.10;;;;;;5021753;28;20471;-79
2022/12/24 12:03:01;;;;;;;5.40;3.53;;;19.50;59.40;;;;;;5014633;28;20457;-79
2022/12/24 12:05:32;;;;;;;6.53;3.87;;;19.60;59.40;;;;;;5013746;28;20472;-79
2022/12/24 12:08:06;;;;;;;7.23;4.17;;;19.70;59.40;;;;;;5017547;28;20444;-78
2022/12/24 12:10:37;;;;;;;9.07;4.03;;;20.00;60.10;;;;;;5017550;28;20439;-78
2022/12/24 12:13:06;;;;;;;7.80;4.60;;;20.40;59.90;;;;;;5010822;28;20446;-79
2022/12/24 12:15:42;;;;;;;6.90;4.00;;;20.70;59.20;;;;;;5002483;28;20444;-79
2022/12/24 12:18:12;;;;;;;7.83;3.60;;;20.80;58.40;;;;;;5013906;28;20452;-78
2022/12/24 12:20:43;;;;;;;8.40;3.97;;;20.80;58.00;;;;;;5015911;28;20457;-78
2022/12/24 12:23:14;;;;;;;8.30;3.67;;;20.70;57.80;;;;;;5012628;28;20444;-78
2022/12/24 12:25:45;;;;;;;5.53;3.73;;;20.70;58.00;;;;;;5009997;28;20482;-77
2022/12/24 12:28:16;;;;;;;6.50;3.57;;;20.70;58.00;;;;;;5010479;28;20531;-78
2022/12/24 12:30:44;;;;;;;6.53;3.03;;;20.60;57.90;;;;;;5011225;28;20472;-79
2022/12/24 12:33:16;;;;;;;6.13;3.23;;;20.50;58.00;;;;;;5015029;28;20441;-82
2022/12/24 12:35:46;;;;;;;6.47;3.00;;;20.40;58.20;;;;;;5014013;28;20540;-79
2022/12/24 12:38:16;;;;;;;8.53;3.80;;;20.30;58.10;;;;;;5018936;28;20452;-80
2022/12/24 12:40:58;;;;;;;4.93;3.40;;;20.20;58.20;;;;;;5017651;28;20459;-80
2022/12/24 12:43:34;;;;;;;6.23;3.83;;;20.10;58.30;;;;;;5014065;28;20452;-80
2022/12/24 12:46:04;;;;;;;7.47;3.93;;;20.00;58.50;;;;;;5016677;28;20476;-79
2022/12/24 12:48:57;;;;;;;5.30;3.37;;;19.90;58.80;;;;;;5010605;28;20513;-81
2022/12/24 12:51:34;;;;;;;7.07;3.73;;;19.90;58.80;;;;;;5014654;28;20586;-80
2022/12/24 12:54:13;;;;;;;7.50;3.67;;;19.80;59.00;;;;;;5016933;28;20452;-81
2022/12/24 12:56:42;;;;;;;6.93;4.17;;;19.80;59.10;;;;;;5016759;28;20456;-81
2022/12/24 12:59:12;;;;;;;8.93;4.27;;;19.70;59.10;;;;;;5016401;28;20476;-81
2022/12/24 13:01:43;;;;;;;7.97;4.50;;;19.70;59.20;;;;;;5013364;28;20448;-80
2022/12/24 13:04:52;;;;;;;9.30;4.60;;;19.70;60.60;;;;;;5013044;28;20476;-80
2022/12/24 13:07:46;;;;;;;10.83;3.80;;;19.90;59.80;;;;;;5013251;28;20469;-80
2022/12/24 13:10:27;;;;;;;18.07;4.37;;;19.90;59.00;;;;;;5013535;28;20488;-80